Time;durP1;ratioP1;P1;durP2;ratioP2;P2;SDS_P1;SDS_P2;PMS_P1;PMS_P2;Temp;Humidity;BMP_temperature;BMP_pressure;BME280_temperature;BME280_humidity;BME280_pressure;Samples;Min_cycle;Max_cycle;Signal;HPM_P1;HPM_P2
2022/12/18 00:01:18;;;;;;;;;;;-3.00;99.90;;;;;;4942099;29;1895;-57
2022/12/18 00:03:44;;;;;;;;;;;-3.40;99.90;;;;;;4955798;28;1092;-57
2022/12/18 00:06:11;;;;;;;;;;;-3.50;99.90;;;;;;4954034;28;1209;-57
2022/12/18 00:08:37;;;;;;;;;;;-3.60;99.90;;;;;;4951619;29;1419;-57
2022/12/18 00:11:03;;;;;;;;;;;-3.70;99.90;;;;;;4951247;29;1234;-57
2022/12/18 00:13:29;;;;;;;;;;;-3.70;99.90;;;;;;4954955;28;1169;-57
2022/12/18 00:15:55;;;;;;;;;;;-3.80;99.90;;;;;;4952648;28;1906;-57
2022/12/18 00:18:20;;;;;;;;;;;-3.70;99.90;;;;;;4966385;28;1539;-57
2022/12/18 00:20:46;;;;;;;;;;;-3.80;99.90;;;;;;4934035;29;1195;-57
2022/12/18 00:23:12;;;;;;;;;;;-3.80;99.90;;;;;;4968249;28;1175;-58
2022/12/18 00:25:37;;;;;;;;;;;-3.90;99.90;;;;;;4953514;28;1151;-57
2022/12/18 00:28:04;;;;;;;;;;;-3.90;99.90;;;;;;4961562;28;1147;-57
2022/12/18 00:30:29;;;;;;;;;;;-3.90;99.90;;;;;;4950446;28;1249;-58
2022/12/18 00:32:55;;;;;;;;;;;-3.90;99.90;;;;;;4951690;29;1100;-57
2022/12/18 00:35:25;;;;;;;;;;;-3.80;99.90;;;;;;4933749;29;1992;-57
2022/12/18 00:37:51;;;;;;;;;;;-3.80;99.90;;;;;;4950545;28;1147;-57
2022/12/18 00:40:17;;;;;;;;;;;-3.70;99.90;;;;;;4962682;28;1148;-57
2022/12/18 00:42:55;;;;;;;;;;;-3.70;99.90;;;;;;4945959;29;1608;-57
2022/12/18 00:45:37;;;;;;;;;;;-3.40;99.90;;;;;;4938301;29;1208;-58
2022/12/18 00:48:02;;;;;;;;;;;-3.70;99.90;;;;;;4951179;28;1223;-57
2022/12/18 00:50:28;;;;;;;;;;;-3.60;99.90;;;;;;4944966;28;1234;-58
2022/12/18 00:52:54;;;;;;;;;;;-3.70;99.90;;;;;;4948514;29;1714;-57
2022/12/18 00:55:19;;;;;;;;;;;-3.80;99.90;;;;;;4951142;29;1978;-57
2022/12/18 00:57:46;;;;;;;;;;;-3.90;99.90;;;;;;4967628;28;1137;-57
2022/12/18 01:00:13;;;;;;;;;;;-3.20;99.90;;;;;;4969866;28;1107;-58
2022/12/18 01:02:38;;;;;;;;;;;-3.90;99.90;;;;;;4970327;28;1099;-57
2022/12/18 01:05:07;;;;;;;;;;;-3.90;99.90;;;;;;4958841;28;1107;-58
2022/12/18 01:07:33;;;;;;;;;;;-3.80;99.90;;;;;;4940157;29;1231;-57
2022/12/18 01:09:58;;;;;;;;;;;-3.90;99.90;;;;;;4952418;28;1339;-58
2022/12/18 01:12:25;;;;;;;;;;;-3.90;99.90;;;;;;4949668;29;1187;-57
2022/12/18 01:14:51;;;;;;;;;;;-4.00;99.90;;;;;;4961068;28;1915;-58
2022/12/18 01:17:17;;;;;;;;;;;-4.10;99.90;;;;;;4964137;28;1139;-57
2022/12/18 01:19:42;;;;;;;;;;;-4.20;99.90;;;;;;4960752;28;1492;-58
2022/12/18 01:22:09;;;;;;;;;;;-4.20;99.90;;;;;;4968877;28;1164;-57
2022/12/18 01:24:35;;;;;;;;;;;-4.20;99.90;;;;;;4961951;28;1041;-57
2022/12/18 01:27:00;;;;;;;;;;;-4.10;99.90;;;;;;4968062;28;1492;-58
2022/12/18 01:29:26;;;;;;;;;;;-4.20;99.90;;;;;;4969156;28;1146;-58
2022/12/18 01:31:55;;;;;;;;;;;-4.10;99.90;;;;;;4966024;28;1095;-57
2022/12/18 01:34:22;;;;;;;;;;;-4.20;99.90;;;;;;4951920;28;2030;-58
2022/12/18 01:36:47;;;;;;;;;;;-4.10;99.90;;;;;;4933464;29;1196;-58
2022/12/18 01:39:14;;;;;;;;;;;-4.10;99.90;;;;;;4933548;29;1266;-57
2022/12/18 01:44:43;;;;;;;;;;;-3.30;99.90;;;;;;4969597;28;1182;-57
2022/12/18 01:47:12;;;;;;;;;;;-4.00;99.90;;;;;;4954159;29;1105;-57
2022/12/18 01:49:38;;;;;;;;;;;-4.10;99.90;;;;;;4942766;28;1138;-58
2022/12/18 01:52:03;;;;;;;;;;;-4.10;99.90;;;;;;4972081;28;1333;-57
2022/12/18 01:54:29;;;;;;;;;;;-4.10;99.90;;;;;;4936481;29;1938;-58
2022/12/18 01:56:55;;;;;;;;;;;-4.00;99.90;;;;;;4953764;29;982;-58
2022/12/18 01:59:20;;;;;;;;;;;-3.60;99.90;;;;;;4936977;29;1177;-58
2022/12/18 02:01:46;;;;;;;;;;;-4.20;99.90;;;;;;4953536;29;1124;-59
2022/12/18 02:04:19;;;;;;;;;;;-3.30;99.90;;;;;;4936456;29;1152;-58
2022/12/18 02:06:46;;;;;;;;;;;-4.50;99.90;;;;;;4945791;29;2012;-58
2022/12/18 02:09:17;;;;;;;;;;;-4.50;99.90;;;;;;4921318;29;1269;-58
2022/12/18 02:11:49;;;;;;;;;;;-4.30;99.90;;;;;;4931473;29;1165;-58
2022/12/18 02:14:19;;;;;;;;;;;-4.50;99.90;;;;;;4930287;28;1957;-58
2022/12/18 02:16:49;;;;;;;;;;;-4.50;99.90;;;;;;4961801;28;1139;-58
2022/12/18 02:19:29;;;;;;;;;;;-4.50;99.90;;;;;;4972768;28;1161;-58
2022/12/18 02:22:06;;;;;;;;;;;-4.50;99.90;;;;;;4955978;28;1131;-58
2022/12/18 02:24:33;;;;;;;;;;;-4.50;99.90;;;;;;4965996;28;1099;-58
2022/12/18 02:27:00;;;;;;;;;;;-4.50;99.90;;;;;;4939976;29;1108;-58
2022/12/18 02:29:32;;;;;;;;;;;-4.50;99.90;;;;;;4951947;29;1147;-58
2022/12/18 02:32:00;;;;;;;;;;;-4.30;99.90;;;;;;4936265;29;1207;-59
2022/12/18 02:34:28;;;;;;;;;;;-4.30;99.90;;;;;;4937007;28;1931;-59
2022/12/18 02:36:56;;;;;;;;;;;-4.20;99.90;;;;;;4955117;28;1287;-59
2022/12/18 02:39:23;;;;;;;;;;;-4.30;99.90;;;;;;4936091;29;1112;-58
2022/12/18 02:41:57;;;;;;;;;;;-4.40;99.90;;;;;;4935893;28;1156;-58
2022/12/18 02:44:24;;;;;;;;;;;-4.20;99.90;;;;;;4963831;28;1148;-58
2022/12/18 02:46:51;;;;;;;;;;;-4.30;99.90;;;;;;4951858;29;1119;-58
2022/12/18 02:49:23;;;;;;;;;;;-4.20;99.90;;;;;;4953385;29;1171;-58
2022/12/18 02:51:53;;;;;;;;;;;-4.20;99.90;;;;;;4943108;28;1290;-58
2022/12/18 02:54:24;;;;;;;;;;;-4.10;99.90;;;;;;4953619;28;1981;-58
2022/12/18 02:56:52;;;;;;;;;;;-4.10;99.90;;;;;;4932829;29;1163;-58
2022/12/18 02:59:23;;;;;;;;;;;-4.20;99.90;;;;;;4938538;29;1089;-59
2022/12/18 03:01:57;;;;;;;;;;;-4.20;99.90;;;;;;4951585;29;1179;-58
2022/12/18 03:04:26;;;;;;;;;;;-4.30;99.90;;;;;;4935955;29;1180;-58
2022/12/18 03:06:55;;;;;;;;;;;-4.40;99.90;;;;;;4967014;28;1161;-58
2022/12/18 03:09:22;;;;;;;;;;;-4.40;99.90;;;;;;4962191;28;1288;-58
2022/12/18 03:14:37;;;;;;;;;;;-4.40;99.90;;;;;;4965412;28;1919;-58
2022/12/18 03:17:05;;;;;;;;;;;-4.50;99.90;;;;;;4970509;28;1139;-58
2022/12/18 03:19:32;;;;;;;;;;;-4.60;99.90;;;;;;4947599;28;1325;-58
2022/12/18 03:22:00;;;;;;;;;;;-4.60;99.90;;;;;;4954754;28;1170;-59
2022/12/18 03:24:33;;;;;;;;;;;-4.30;99.90;;;;;;4954554;28;1186;-58
2022/12/18 03:27:02;;;;;;;;;;;-4.50;99.90;;;;;;4945182;29;1125;-58
2022/12/18 03:29:32;;;;;;;;;;;-4.70;99.90;;;;;;4935354;28;1148;-58
2022/12/18 03:32:01;;;;;;;;;;;-4.70;99.90;;;;;;4951004;29;1120;-57
2022/12/18 03:34:30;;;;;;;;;;;-4.60;99.90;;;;;;4950555;29;1969;-58
2022/12/18 03:36:58;;;;;;;;;;;-4.90;99.90;;;;;;4943365;28;1181;-58
2022/12/18 03:39:24;;;;;;;;;;;-4.90;99.90;;;;;;4952329;29;1140;-58
2022/12/18 03:42:01;;;;;;;;;;;-5.00;99.90;;;;;;4934651;29;1112;-58
2022/12/18 03:44:34;;;;;;;;;;;-5.00;99.90;;;;;;4931503;29;1065;-58
2022/12/18 03:47:06;;;;;;;;;;;-5.10;99.90;;;;;;4926479;29;1145;-58
2022/12/18 03:49:32;;;;;;;;;;;-5.20;99.90;;;;;;4935073;29;1125;-58
2022/12/18 03:52:08;;;;;;;;;;;-5.30;99.90;;;;;;4944751;28;1247;-58
2022/12/18 03:54:36;;;;;;;;;;;-5.40;99.90;;;;;;4947016;28;1978;-57
2022/12/18 03:57:14;;;;;;;;;;;-5.50;99.90;;;;;;4935071;29;1116;-58
2022/12/18 03:59:40;;;;;;;;;;;-5.50;99.90;;;;;;4918721;29;1147;-58
2022/12/18 04:02:08;;;;;;;;;;;-5.40;99.90;;;;;;4920613;28;1231;-58
2022/12/18 04:04:36;;;;;;;;;;;-5.50;99.90;;;;;;4949159;28;1168;-58
2022/12/18 04:07:04;;;;;;;;;;;-5.50;99.90;;;;;;4934588;29;1212;-58
2022/12/18 04:09:32;;;;;;;;;;;-5.40;99.90;;;;;;4930400;29;1379;-58
2022/12/18 04:11:58;;;;;;;;;;;-5.40;99.90;;;;;;4938007;28;1124;-58
2022/12/18 04:14:24;;;;;;;;;;;-5.30;99.90;;;;;;4962761;28;2013;-58
2022/12/18 04:16:54;;;;;;;;;;;-5.30;99.90;;;;;;4968826;28;1104;-58
2022/12/18 04:19:25;;;;;;;;;;;-4.30;99.90;;;;;;4950176;29;1127;-58
2022/12/18 04:21:52;;;;;;;;;;;-5.40;99.90;;;;;;4952825;28;1089;-58
2022/12/18 04:24:18;;;;;;;;;;;-5.30;99.90;;;;;;4968738;28;1201;-57
2022/12/18 04:26:53;;;;;;;;;;;-5.60;99.90;;;;;;4969463;28;1127;-58
2022/12/18 04:29:24;;;;;;;;;;;-5.60;99.90;;;;;;4937835;29;1128;-58
2022/12/18 04:31:50;;;;;;;;;;;-5.60;99.90;;;;;;4934162;29;1076;-59
2022/12/18 04:34:16;;;;;;;;;;;-5.60;99.90;;;;;;4933845;29;2001;-58
2022/12/18 04:36:47;;;;;;;;;;;-5.60;99.90;;;;;;4933416;28;1134;-58
2022/12/18 04:39:14;;;;;;;;;;;-5.60;99.90;;;;;;4933718;29;1318;-58
2022/12/18 04:41:48;;;;;;;;;;;-5.60;99.90;;;;;;4918199;29;1133;-58
2022/12/18 04:44:14;;;;;;;;;;;-5.60;99.90;;;;;;4933157;29;1132;-58
2022/12/18 04:46:39;;;;;;;;;;;-5.60;99.90;;;;;;4951167;28;1118;-57
2022/12/18 04:49:05;;;;;;;;;;;-5.40;99.90;;;;;;4966678;28;1108;-58
2022/12/18 04:51:31;;;;;;;;;;;-5.60;99.90;;;;;;4952183;28;1226;-59
2022/12/18 04:53:56;;;;;;;;;;;-5.70;99.90;;;;;;4955260;28;1028;-58
2022/12/18 04:56:22;;;;;;;;;;;-5.70;99.90;;;;;;4959571;28;1907;-58
2022/12/18 04:58:48;;;;;;;;;;;-5.70;99.90;;;;;;4969897;28;1159;-58
2022/12/18 05:01:14;;;;;;;;;;;-5.80;99.90;;;;;;4970214;28;1150;-58
2022/12/18 05:03:40;;;;;;;;;;;-5.70;99.90;;;;;;4968783;28;1162;-58
2022/12/18 05:06:06;;;;;;;;;;;-5.80;99.90;;;;;;4953287;28;1320;-58
2022/12/18 05:08:32;;;;;;;;;;;-5.80;99.90;;;;;;4950790;29;1304;-58
2022/12/18 05:10:58;;;;;;;;;;;-5.80;99.90;;;;;;4951163;29;1100;-58
2022/12/18 05:13:23;;;;;;;;;;;-5.80;99.90;;;;;;4950112;28;1202;-58
2022/12/18 05:15:53;;;;;;;;;;;-5.80;99.90;;;;;;4935560;29;1914;-58
2022/12/18 05:18:18;;;;;;;;;;;-5.80;99.90;;;;;;4954470;29;1088;-58
2022/12/18 05:20:44;;;;;;;;;;;-5.90;99.90;;;;;;4937657;29;1120;-58
2022/12/18 05:23:10;;;;;;;;;;;-5.90;99.90;;;;;;4954335;28;1204;-58
2022/12/18 05:25:35;;;;;;;;;;;-6.00;99.90;;;;;;4954261;29;1116;-58
2022/12/18 05:28:01;;;;;;;;;;;-6.10;99.90;;;;;;4936191;29;1197;-57
2022/12/18 05:30:27;;;;;;;;;;;-6.20;99.90;;;;;;4954202;28;1160;-59
2022/12/18 05:32:53;;;;;;;;;;;-6.20;99.90;;;;;;4969110;28;1096;-58
2022/12/18 05:35:18;;;;;;;;;;;-6.20;99.90;;;;;;4973792;28;1906;-58
2022/12/18 05:37:44;;;;;;;;;;;-5.70;99.90;;;;;;4966730;28;1087;-58
2022/12/18 05:40:10;;;;;;;;;;;-5.70;99.90;;;;;;4961984;28;1216;-58
2022/12/18 05:42:36;;;;;;;;;;;-6.00;99.90;;;;;;4973692;28;1091;-58
2022/12/18 05:45:01;;;;;;;;;;;-5.90;99.90;;;;;;4964802;28;1165;-58
2022/12/18 05:47:28;;;;;;;;;;;-5.90;99.90;;;;;;4953852;29;1104;-58
2022/12/18 05:49:54;;;;;;;;;;;-5.90;99.90;;;;;;4945317;28;2221;-58
2022/12/18 05:52:19;;;;;;;;;;;-5.90;99.90;;;;;;4970997;28;1255;-58
2022/12/18 05:54:45;;;;;;;;;;;-5.90;99.90;;;;;;4953256;29;1884;-59
2022/12/18 05:57:10;;;;;;;;;;;-5.90;99.90;;;;;;4956196;28;1096;-58
2022/12/18 05:59:36;;;;;;;;;;;-6.00;99.90;;;;;;4973189;28;1143;-58
2022/12/18 06:02:02;;;;;;;;;;;-6.00;99.90;;;;;;4972979;28;1092;-58
2022/12/18 06:04:28;;;;;;;;;;;-6.10;99.90;;;;;;4970061;28;1131;-58
2022/12/18 06:06:54;;;;;;;;;;;-6.10;99.90;;;;;;4955161;28;1100;-58
2022/12/18 06:09:19;;;;;;;;;;;-6.20;99.90;;;;;;4964884;28;1275;-57
2022/12/18 06:11:45;;;;;;;;;;;-6.10;99.90;;;;;;4953926;29;1107;-58
2022/12/18 06:14:11;;;;;;;;;;;-6.20;99.90;;;;;;4961554;28;1946;-58
2022/12/18 06:16:36;;;;;;;;;;;-6.20;99.90;;;;;;4956101;28;1092;-58
2022/12/18 06:19:03;;;;;;;;;;;-6.20;99.90;;;;;;4954228;29;1120;-58
2022/12/18 06:21:29;;;;;;;;;;;-6.20;99.90;;;;;;4965597;28;1096;-58
2022/12/18 06:23:55;;;;;;;;;;;-6.20;99.90;;;;;;4953696;28;1189;-58
2022/12/18 06:26:20;;;;;;;;;;;-6.30;99.90;;;;;;4957978;28;1151;-58
2022/12/18 06:28:46;;;;;;;;;;;-6.30;99.90;;;;;;4952834;29;1072;-58
2022/12/18 06:31:11;;;;;;;;;;;-6.30;99.90;;;;;;4953780;29;1088;-58
2022/12/18 06:33:37;;;;;;;;;;;-6.30;99.90;;;;;;4943866;28;1185;-59
2022/12/18 06:36:06;;;;;;;;;;;-6.30;99.90;;;;;;4971614;28;1906;-58
2022/12/18 06:38:33;;;;;;;;;;;-6.20;99.90;;;;;;4959712;28;1309;-58
2022/12/18 06:40:59;;;;;;;;;;;-6.30;99.90;;;;;;4954870;28;1096;-58
2022/12/18 06:43:25;;;;;;;;;;;-6.30;99.90;;;;;;4971912;28;1131;-59
2022/12/18 06:45:52;;;;;;;;;;;-6.30;99.90;;;;;;4957141;28;1201;-58
2022/12/18 06:48:20;;;;;;;;;;;-6.20;99.90;;;;;;4953546;29;1108;-58
2022/12/18 06:50:45;;;;;;;;;;;-6.30;99.90;;;;;;4954744;28;1200;-58
2022/12/18 06:53:11;;;;;;;;;;;-6.20;99.90;;;;;;4963098;28;1156;-58
2022/12/18 06:55:37;;;;;;;;;;;-6.20;99.90;;;;;;4952796;29;1979;-58
2022/12/18 06:58:02;;;;;;;;;;;-6.10;99.90;;;;;;4952581;29;1183;-58
2022/12/18 07:00:28;;;;;;;;;;;-6.20;99.90;;;;;;4968331;28;1220;-58
2022/12/18 07:02:54;;;;;;;;;;;-6.10;99.90;;;;;;4960384;28;1281;-58
2022/12/18 07:05:19;;;;;;;;;;;-6.10;99.90;;;;;;4937888;29;1369;-58
2022/12/18 07:07:45;;;;;;;;;;;-6.10;99.90;;;;;;4936300;29;1267;-58
2022/12/18 07:10:10;;;;;;;;;;;-6.10;99.90;;;;;;4933942;29;1312;-58
2022/12/18 07:12:36;;;;;;;;;;;-6.00;99.90;;;;;;4931739;29;2136;-58
2022/12/18 07:15:02;;;;;;;;;;;-5.90;99.90;;;;;;4949354;29;2013;-58
2022/12/18 07:17:29;;;;;;;;;;;-6.00;99.90;;;;;;4948334;29;1138;-58
2022/12/18 07:19:55;;;;;;;;;;;-6.00;99.90;;;;;;4950613;29;1099;-58
2022/12/18 07:22:20;;;;;;;;;;;-6.10;99.90;;;;;;4952669;29;1150;-58
2022/12/18 07:24:46;;;;;;;;;;;-6.10;99.90;;;;;;4945060;29;1099;-58
2022/12/18 07:27:12;;;;;;;;;;;-6.20;99.90;;;;;;4942270;29;1141;-58
2022/12/18 07:29:37;;;;;;;;;;;-6.20;99.90;;;;;;4936789;29;1282;-58
2022/12/18 07:32:03;;;;;;;;;;;-6.30;99.90;;;;;;4941905;29;1238;-58
2022/12/18 07:34:29;;;;;;;;;;;-6.30;99.90;;;;;;4940794;29;1923;-58
2022/12/18 07:36:54;;;;;;;;;;;-6.30;99.90;;;;;;4933231;29;1073;-59
2022/12/18 07:39:20;;;;;;;;;;;-6.40;99.90;;;;;;4927892;29;1211;-59
2022/12/18 07:42:30;;;;;;;;;;;-6.40;99.90;;;;;;4939715;29;1246;-58
2022/12/18 07:44:32;;;;;;;;;;;-6.00;99.90;;;;;;4940201;29;1446;-59
2022/12/18 07:46:57;;;;;;;;;;;-6.40;99.90;;;;;;4935040;29;1194;-58
2022/12/18 07:49:23;;;;;;;;;;;-6.40;99.90;;;;;;4932986;29;1232;-59
2022/12/18 07:51:48;;;;;;;;;;;-6.50;99.90;;;;;;4942439;29;1302;-59
2022/12/18 07:54:14;;;;;;;;;;;-6.50;99.90;;;;;;4932137;29;1911;-59
2022/12/18 07:56:40;;;;;;;;;;;-6.40;99.90;;;;;;4933020;29;1129;-59
2022/12/18 07:59:06;;;;;;;;;;;-6.40;99.90;;;;;;4934048;29;1096;-59
2022/12/18 08:01:32;;;;;;;;;;;-6.30;99.90;;;;;;4936123;29;1343;-59
2022/12/18 08:03:58;;;;;;;;;;;-5.90;99.90;;;;;;4938508;29;1261;-58
2022/12/18 08:06:24;;;;;;;;;;;-6.00;99.90;;;;;;4932176;29;1214;-58
2022/12/18 08:08:51;;;;;;;;;;;-5.80;99.90;;;;;;4931914;29;1273;-58
2022/12/18 08:11:17;;;;;;;;;;;-5.80;99.90;;;;;;4932444;29;1137;-59
2022/12/18 08:13:43;;;;;;;;;;;-5.70;99.90;;;;;;4937818;29;1197;-59
2022/12/18 08:16:08;;;;;;;;;;;-5.70;99.90;;;;;;4951447;29;1915;-59
2022/12/18 08:18:36;;;;;;;;;;;-5.60;99.90;;;;;;4946191;29;1026;-58
2022/12/18 08:21:09;;;;;;;;;;;-5.60;99.90;;;;;;4940463;29;1250;-58
2022/12/18 08:23:35;;;;;;;;;;;-5.50;99.90;;;;;;4935984;29;1116;-59
2022/12/18 08:26:01;;;;;;;;;;;-5.50;99.90;;;;;;4939561;29;1167;-59
2022/12/18 08:28:26;;;;;;;;;;;-5.50;99.90;;;;;;4930877;29;1131;-59
2022/12/18 08:30:52;;;;;;;;;;;-5.50;99.90;;;;;;4932589;29;1088;-59
2022/12/18 08:33:18;;;;;;;;;;;-5.40;99.90;;;;;;4932369;29;1124;-59
2022/12/18 08:35:44;;;;;;;;;;;-5.30;99.90;;;;;;4930660;29;1907;-59
2022/12/18 08:38:09;;;;;;;;;;;-5.30;99.90;;;;;;4932109;29;1045;-59
2022/12/18 08:40:35;;;;;;;;;;;-5.20;99.90;;;;;;4929297;29;3188;-59
2022/12/18 08:45:45;;;;;;;;;;;-5.10;99.90;;;;;;4936819;29;1092;-59
2022/12/18 08:48:10;;;;;;;;;;;-5.00;99.90;;;;;;4933100;29;3175;-59
2022/12/18 08:50:36;;;;;;;;;;;-4.90;99.90;;;;;;4930623;29;1107;-59
2022/12/18 08:53:02;;;;;;;;;;;-4.90;99.90;;;;;;4939811;29;1449;-59
2022/12/18 08:55:27;;;;;;;;;;;-4.80;99.90;;;;;;4938122;29;1914;-59
2022/12/18 08:57:53;;;;;;;;;;;-4.30;99.90;;;;;;4944463;29;1231;-59
2022/12/18 09:00:19;;;;;;;;;;;-4.70;99.90;;;;;;4932263;29;1174;-59
2022/12/18 09:02:45;;;;;;;;;;;-4.70;99.90;;;;;;4931679;29;1159;-59
2022/12/18 09:05:11;;;;;;;;;;;-4.70;99.90;;;;;;4930830;29;1120;-59
2022/12/18 09:07:37;;;;;;;;;;;-4.30;99.90;;;;;;4931835;29;1018;-59
2022/12/18 09:10:03;;;;;;;;;;;-4.60;99.90;;;;;;4931954;29;1304;-59
2022/12/18 09:12:29;;;;;;;;;;;-4.50;99.90;;;;;;4935149;29;1245;-59
2022/12/18 09:14:56;;;;;;;;;;;-4.40;99.90;;;;;;4938119;29;1906;-59
2022/12/18 09:17:21;;;;;;;;;;;-3.90;99.90;;;;;;4941268;29;1095;-59
2022/12/18 09:19:47;;;;;;;;;;;-4.20;99.90;;;;;;4939562;29;1285;-59
2022/12/18 09:22:13;;;;;;;;;;;-4.10;99.90;;;;;;4938409;29;1156;-58
2022/12/18 09:24:38;;;;;;;;;;;-4.00;99.90;;;;;;4932621;29;1238;-59
2022/12/18 09:27:04;;;;;;;;;;;-3.90;99.90;;;;;;4934024;29;1238;-59
2022/12/18 09:29:30;;;;;;;;;;;-3.70;99.90;;;;;;4934326;29;1151;-59
2022/12/18 09:31:56;;;;;;;;;;;-3.60;99.90;;;;;;4938302;29;1372;-58
2022/12/18 09:34:21;;;;;;;;;;;-3.50;99.90;;;;;;4939095;29;1922;-58
2022/12/18 09:36:47;;;;;;;;;;;-3.40;99.90;;;;;;4942756;29;1242;-59
2022/12/18 09:39:13;;;;;;;;;;;-3.30;99.90;;;;;;4937447;29;1300;-59
2022/12/18 09:41:53;;;;;;;;;;;-3.20;99.90;;;;;;4934398;29;1206;-59
2022/12/18 09:44:22;;;;;;;;;;;-3.10;99.90;;;;;;4934582;29;1198;-59
2022/12/18 09:47:01;;;;;;;;;;;-3.00;99.90;;;;;;4934864;29;1195;-59
2022/12/18 09:49:29;;;;;;;;;;;-2.80;99.90;;;;;;4934735;29;1033;-59
2022/12/18 09:51:57;;;;;;;;;;;-2.70;99.90;;;;;;4950605;29;1322;-59
2022/12/18 09:54:25;;;;;;;;;;;-2.40;99.90;;;;;;4913583;29;2509;-59
2022/12/18 09:56:51;;;;;;;;;;;-2.50;99.90;;;;;;4926777;29;3459;-59
2022/12/18 09:59:35;;;;;;;;;;;-2.20;99.90;;;;;;4927095;29;1360;-58
2022/12/18 10:02:14;;;;;;;;;;;-2.40;99.90;;;;;;4926290;29;3016;-59
2022/12/18 10:04:40;;;;;;;;;;;-2.40;99.90;;;;;;4926860;29;1334;-59
2022/12/18 10:07:12;;;;;;;;;;;-2.50;99.90;;;;;;4946587;28;1482;-58
2022/12/18 10:09:42;;;;;;;;;;;-2.50;99.90;;;;;;4946331;28;1403;-59
2022/12/18 10:12:21;;;;;;;;;;;-2.50;99.90;;;;;;4949736;28;1346;-59
2022/12/18 10:15:01;;;;;;;;;;;-2.50;99.90;;;;;;4941487;28;3114;-59
2022/12/18 10:17:39;;;;;;;;;;;-2.50;99.90;;;;;;4947975;28;2192;-59
2022/12/18 10:20:13;;;;;;;;;;;-1.90;99.90;;;;;;4951220;28;1185;-59
2022/12/18 10:22:53;;;;;;;;;;;-0.80;99.90;;;;;;4934856;29;1362;-59
2022/12/18 10:25:19;;;;;;;;;;;0.40;99.90;;;;;;4950472;28;1383;-59
2022/12/18 10:27:45;;;;;;;;;;;1.60;99.90;;;;;;4949572;28;1387;-59
2022/12/18 10:30:13;;;;;;;;;;;2.60;99.90;;;;;;4950256;28;1314;-59
2022/12/18 10:32:39;;;;;;;;;;;3.50;99.90;;;;;;4950819;28;1297;-59
2022/12/18 10:35:05;;;;;;;;;;;4.30;99.90;;;;;;4942995;28;1926;-59
2022/12/18 10:37:30;;;;;;;;;;;4.70;99.90;;;;;;4946376;28;1253;-59
2022/12/18 10:40:13;;;;;;;;;;;5.00;99.90;;;;;;4947800;28;1278;-59
2022/12/18 10:42:40;;;;;;;;;;;5.30;99.90;;;;;;4947162;28;1410;-59
2022/12/18 10:45:11;;;;;;;;;;;5.50;99.90;;;;;;4947917;28;1377;-59
2022/12/18 10:47:41;;;;;;;;;;;5.80;99.90;;;;;;4948019;28;1291;-59
2022/12/18 10:50:18;;;;;;;;;;;6.30;99.90;;;;;;4950389;28;1242;-59
2022/12/18 10:52:52;;;;;;;;;;;6.20;99.90;;;;;;4950111;28;1283;-59
2022/12/18 10:55:18;;;;;;;;;;;5.50;99.40;;;;;;4939476;29;1974;-59
2022/12/18 10:57:43;;;;;;;;;;;4.90;99.60;;;;;;4935312;29;1227;-59
2022/12/18 11:00:18;;;;;;;;;;;4.30;99.90;;;;;;4953157;28;1277;-59
2022/12/18 11:02:44;;;;;;;;;;;3.80;99.90;;;;;;4950446;29;1278;-59
2022/12/18 11:05:32;;;;;;;;;;;3.80;99.90;;;;;;4955343;28;1262;-59
2022/12/18 11:07:59;;;;;;;;;;;3.50;99.90;;;;;;4958520;28;1259;-59
2022/12/18 11:10:28;;;;;;;;;;;3.10;99.90;;;;;;4952567;28;1210;-60
2022/12/18 11:12:53;;;;;;;;;;;2.60;99.90;;;;;;4952551;28;1292;-59
2022/12/18 11:15:21;;;;;;;;;;;2.40;99.90;;;;;;4953550;28;1981;-59
2022/12/18 11:17:48;;;;;;;;;;;1.80;99.90;;;;;;4951575;28;1206;-59
2022/12/18 11:20:28;;;;;;;;;;;1.80;99.90;;;;;;4956361;28;1286;-59
2022/12/18 11:22:55;;;;;;;;;;;1.50;99.90;;;;;;4943858;28;1266;-59
2022/12/18 11:25:21;;;;;;;;;;;1.60;99.90;;;;;;4949668;28;1239;-59
2022/12/18 11:27:49;;;;;;;;;;;0.80;99.90;;;;;;4953097;28;1211;-59
2022/12/18 11:30:23;;;;;;;;;;;0.60;99.90;;;;;;4952693;28;1226;-59
2022/12/18 11:32:52;;;;;;;;;;;0.40;99.90;;;;;;4953327;28;1186;-59
2022/12/18 11:35:20;;;;;;;;;;;0.30;99.90;;;;;;4952315;28;1976;-59
2022/12/18 11:37:48;;;;;;;;;;;0.40;99.90;;;;;;4953001;28;1218;-59
2022/12/18 11:40:15;;;;;;;;;;;0.40;99.90;;;;;;4950831;29;1613;-59
2022/12/18 11:42:48;;;;;;;;;;;0.30;99.90;;;;;;4951473;28;1068;-59
2022/12/18 11:45:13;;;;;;;;;;;0.00;99.90;;;;;;4940056;29;1123;-59
2022/12/18 11:47:52;;;;;;;;;;;0.20;99.90;;;;;;4952168;28;1235;-59
2022/12/18 11:50:20;;;;;;;;;;;-0.10;99.90;;;;;;4951599;28;1242;-59
2022/12/18 11:52:46;;;;;;;;;;;-0.20;99.90;;;;;;4953203;28;1330;-59
2022/12/18 11:55:14;;;;;;;;;;;-0.10;99.90;;;;;;4953303;28;1950;-59
2022/12/18 11:57:41;;;;;;;;;;;-0.20;99.90;;;;;;4951788;29;1064;-59
2022/12/18 12:00:19;;;;;;;;;;;0.00;99.90;;;;;;4940766;29;1298;-59
2022/12/18 12:03:02;;;;;;;;;;;-0.10;99.90;;;;;;4949358;29;1224;-59
2022/12/18 12:05:38;;;;;;;;;;;-0.20;99.90;;;;;;4951853;28;1235;-59
2022/12/18 12:08:27;;;;;;;;;;;-0.30;99.90;;;;;;4948923;28;1219;-59
2022/12/18 12:11:06;;;;;;;;;;;-0.40;99.90;;;;;;4957108;28;1949;-59
2022/12/18 12:13:32;;;;;;;;;;;-0.30;99.90;;;;;;4953404;28;1215;-59
2022/12/18 12:16:02;;;;;;;;;;;0.00;99.90;;;;;;4951374;29;1915;-59
2022/12/18 12:18:35;;;;;;;;;;;0.00;99.90;;;;;;4952922;28;1298;-59
2022/12/18 12:21:03;;;;;;;;;;;-0.40;99.90;;;;;;4948320;29;1239;-59
2022/12/18 12:23:29;;;;;;;;;;;-0.40;99.90;;;;;;4951687;29;1187;-59
2022/12/18 12:25:55;;;;;;;;;;;-0.40;99.90;;;;;;4950522;28;1135;-59
2022/12/18 12:28:34;;;;;;;;;;;-0.50;99.90;;;;;;4956651;28;1112;-59
2022/12/18 12:31:09;;;;;;;;;;;-0.40;99.90;;;;;;4949720;28;1239;-59
2022/12/18 12:33:40;;;;;;;;;;;-0.30;99.90;;;;;;4951221;28;1336;-59
2022/12/18 12:36:22;;;;;;;;;;;-0.40;99.90;;;;;;4952302;28;1987;-59
2022/12/18 12:38:51;;;;;;;;;;;-0.30;99.90;;;;;;4951032;29;1293;-59
2022/12/18 12:44:06;;;;;;;;;;;-0.40;99.90;;;;;;4950983;28;1620;-59
2022/12/18 12:46:35;;;;;;;;;;;-0.40;99.90;;;;;;4950753;29;1557;-59
2022/12/18 12:49:03;;;;;;;;;;;-0.30;99.90;;;;;;4950357;28;1539;-59
2022/12/18 12:51:32;;;;;;;;;;;-0.30;99.90;;;;;;4952847;28;1310;-59
2022/12/18 12:53:58;;;;;;;;;;;0.10;99.90;;;;;;4947890;29;1451;-59
2022/12/18 12:56:25;;;;;;;;;;;-0.20;99.90;;;;;;4942238;28;2905;-59
2022/12/18 12:58:55;;;;;;;;;;;0.00;99.90;;;;;;4949979;29;1641;-59
2022/12/18 13:01:27;;;;;;;;;;;-0.30;99.90;;;;;;4947611;28;1538;-59
2022/12/18 13:04:06;;;;;;;;;;;-0.20;99.90;;;;;;4959130;28;1863;-59
2022/12/18 13:06:37;;;;;;;;;;;-0.10;99.90;;;;;;4955622;28;1388;-59
2022/12/18 13:09:03;;;;;;;;;;;-0.40;99.90;;;;;;4938815;29;1065;-59
2022/12/18 13:14:24;;;;;;;;;;;-0.20;99.90;;;;;;4950405;29;1360;-59
2022/12/18 13:16:50;;;;;;;;;;;-0.40;99.90;;;;;;4949571;29;1329;-59
2022/12/18 13:19:21;;;;;;;;;;;-0.30;99.90;;;;;;4950589;28;1128;-59
2022/12/18 13:21:53;;;;;;;;;;;-0.30;99.90;;;;;;4963974;28;1300;-59
2022/12/18 13:24:24;;;;;;;;;;;-0.30;99.90;;;;;;4925434;29;1105;-59
2022/12/18 13:26:50;;;;;;;;;;;-0.40;99.90;;;;;;4951087;29;1143;-59
2022/12/18 13:29:35;;;;;;;;;;;-0.30;99.90;;;;;;4956328;28;1827;-59
2022/12/18 13:32:01;;;;;;;;;;;0.00;99.90;;;;;;4949554;29;1351;-59
2022/12/18 13:34:30;;;;;;;;;;;-0.20;99.90;;;;;;4933560;29;1925;-59
2022/12/18 13:37:17;;;;;;;;;;;0.20;99.90;;;;;;4952695;28;1155;-59
2022/12/18 13:39:43;;;;;;;;;;;-0.30;99.90;;;;;;4952439;29;1381;-59
2022/12/18 13:42:08;;;;;;;;;;;-0.20;99.90;;;;;;4954537;29;1096;-59
2022/12/18 13:44:35;;;;;;;;;;;0.10;99.90;;;;;;4948893;28;3175;-59
2022/12/18 13:47:02;;;;;;;;;;;0.00;99.90;;;;;;4947849;28;3114;-59
2022/12/18 13:49:37;;;;;;;;;;;-0.30;99.90;;;;;;4959447;28;1320;-59
2022/12/18 13:52:15;;;;;;;;;;;-0.20;99.90;;;;;;4958574;28;2834;-59
2022/12/18 13:54:41;;;;;;;;;;;-0.10;99.90;;;;;;4956392;28;1931;-59
2022/12/18 13:57:25;;;;;;;;;;;0.00;99.90;;;;;;4967225;28;1220;-59
2022/12/18 13:59:51;;;;;;;;;;;-0.60;99.90;;;;;;4936040;29;1108;-59
2022/12/18 14:02:20;;;;;;;;;;;-0.10;99.90;;;;;;4953719;29;2753;-59
2022/12/18 14:04:46;;;;;;;;;;;-0.40;99.90;;;;;;4943521;28;2370;-59
2022/12/18 14:07:14;;;;;;;;;;;-0.50;99.90;;;;;;4954278;28;1183;-59
2022/12/18 14:09:41;;;;;;;;;;;-0.70;99.90;;;;;;4936778;29;1077;-59
2022/12/18 14:14:59;;;;;;;;;;;-0.60;99.90;;;;;;4947895;29;1942;-59
2022/12/18 14:17:25;;;;;;;;;;;-0.70;99.90;;;;;;4953920;29;1127;-59
2022/12/18 14:19:51;;;;;;;;;;;-0.60;99.90;;;;;;4937453;28;1112;-59
2022/12/18 14:22:18;;;;;;;;;;;-0.60;99.90;;;;;;4950560;28;1713;-59
2022/12/18 14:24:45;;;;;;;;;;;-0.80;99.90;;;;;;4963901;28;1377;-59
2022/12/18 14:27:19;;;;;;;;;;;-0.40;99.90;;;;;;4963790;28;1379;-59
2022/12/18 14:29:44;;;;;;;;;;;-1.00;99.90;;;;;;4922122;28;3558;-59
2022/12/18 14:32:12;;;;;;;;;;;-0.80;99.90;;;;;;4959545;28;1377;-58
2022/12/18 14:34:38;;;;;;;;;;;-0.90;99.90;;;;;;4945335;29;3202;-58
2022/12/18 14:37:04;;;;;;;;;;;-1.00;99.90;;;;;;4944739;28;3210;-58
2022/12/18 14:39:29;;;;;;;;;;;-1.10;99.90;;;;;;4943778;28;1144;-58
2022/12/18 14:41:55;;;;;;;;;;;-1.20;99.90;;;;;;4954004;28;2743;-59
2022/12/18 14:44:21;;;;;;;;;;;-1.00;99.90;;;;;;4935839;29;1120;-59
2022/12/18 14:46:48;;;;;;;;;;;-0.80;99.90;;;;;;4953111;29;1081;-59
2022/12/18 14:49:23;;;;;;;;;;;-1.00;99.90;;;;;;4934837;28;1279;-59
2022/12/18 14:51:50;;;;;;;;;;;-1.30;99.90;;;;;;4960997;28;1403;-58
2022/12/18 14:54:17;;;;;;;;;;;-1.30;99.90;;;;;;4954647;28;2752;-58